Time;durP1;ratioP1;P1;durP2;ratioP2;P2;SDS_P1;SDS_P2;PMS_P1;PMS_P2;Temp;Humidity;BMP_temperature;BMP_pressure;BME280_temperature;BME280_humidity;BME280_pressure;Samples;Min_cycle;Max_cycle;Signal;HPM_P1;HPM_P2
2021/12/26 00:00:43;;;;;;;8.90;6.47;;;;;;;;;;5072934;28;20505;-71
2021/12/26 00:03:10;;;;;;;8.97;5.17;;;;;;;;;;5073012;28;20451;-71
2021/12/26 00:05:39;;;;;;;5.97;3.63;;;;;;;;;;5072531;28;20479;-71
2021/12/26 00:08:06;;;;;;;12.97;7.07;;;;;;;;;;5072702;28;20490;-71
2021/12/26 00:10:34;;;;;;;8.50;5.43;;;;;;;;;;5072737;28;20448;-71
2021/12/26 00:13:01;;;;;;;8.20;5.70;;;;;;;;;;5072727;28;20451;-71
2021/12/26 00:15:28;;;;;;;10.37;6.20;;;;;;;;;;5072407;28;20849;-71
2021/12/26 00:17:55;;;;;;;9.70;5.10;;;;;;;;;;5072728;28;20448;-71
2021/12/26 00:20:22;;;;;;;6.27;3.73;;;;;;;;;;5074888;28;20451;-71
2021/12/26 00:22:51;;;;;;;8.43;4.30;;;;;;;;;;5076739;28;20447;-71
2021/12/26 00:25:18;;;;;;;5.10;3.20;;;;;;;;;;5075965;28;20479;-71
2021/12/26 00:27:45;;;;;;;5.20;3.50;;;;;;;;;;5076422;28;20494;-71
2021/12/26 00:30:14;;;;;;;8.30;5.30;;;;;;;;;;5076400;28;20467;-71
2021/12/26 00:32:41;;;;;;;5.43;4.37;;;;;;;;;;5076528;28;20940;-71
2021/12/26 00:35:09;;;;;;;10.20;5.43;;;;;;;;;;5076243;28;20472;-71
2021/12/26 00:37:36;;;;;;;12.10;5.57;;;;;;;;;;5076306;28;20447;-71
2021/12/26 00:40:05;;;;;;;8.57;5.93;;;;;;;;;;5076434;28;20451;-71
2021/12/26 00:42:32;;;;;;;8.57;4.93;;;;;;;;;;5076362;28;20459;-71
2021/12/26 00:45:00;;;;;;;11.27;5.77;;;;;;;;;;5076018;28;20471;-71
2021/12/26 00:47:29;;;;;;;11.20;6.60;;;;;;;;;;5076042;28;20490;-71
2021/12/26 00:49:56;;;;;;;8.20;4.73;;;;;;;;;;5076365;28;20451;-71
2021/12/26 00:52:23;;;;;;;7.63;5.10;;;;;;;;;;5076202;28;20924;-71
2021/12/26 00:54:50;;;;;;;5.67;3.90;;;;;;;;;;5075802;28;20817;-71
2021/12/26 00:57:19;;;;;;;8.87;4.20;;;;;;;;;;5075932;28;20824;-71
2021/12/26 00:59:46;;;;;;;9.00;5.37;;;;;;;;;;5076052;28;20483;-71
2021/12/26 01:02:14;;;;;;;14.50;7.30;;;;;;;;;;5075962;28;20478;-71
2021/12/26 01:04:41;;;;;;;7.63;5.57;;;;;;;;;;5075405;28;20468;-71
2021/12/26 01:07:16;;;;;;;9.70;5.70;;;;;;;;;;5075723;28;20452;-71
2021/12/26 01:09:47;;;;;;;6.77;4.17;;;;;;;;;;5076131;28;20514;-71
2021/12/26 01:12:16;;;;;;;6.77;4.03;;;;;;;;;;5075763;28;20452;-71
2021/12/26 01:14:49;;;;;;;12.20;3.83;;;;;;;;;;5075293;28;20476;-71
2021/12/26 01:17:20;;;;;;;9.47;6.00;;;;;;;;;;5075737;28;20451;-71
2021/12/26 01:19:51;;;;;;;8.83;4.73;;;;;;;;;;5075518;28;20452;-71
2021/12/26 01:22:18;;;;;;;8.67;4.63;;;;;;;;;;5075642;28;20509;-71
2021/12/26 01:24:48;;;;;;;6.07;4.43;;;;;;;;;;5074994;28;20468;-71
2021/12/26 01:27:15;;;;;;;11.43;6.63;;;;;;;;;;5075618;28;20495;-71
2021/12/26 01:29:42;;;;;;;7.33;4.97;;;;;;;;;;5075176;28;20966;-71
2021/12/26 01:32:11;;;;;;;13.27;7.97;;;;;;;;;;5074320;28;20451;-71
2021/12/26 01:34:38;;;;;;;9.30;5.53;;;;;;;;;;5075134;28;20479;-71
2021/12/26 01:37:05;;;;;;;13.50;5.53;;;;;;;;;;5075323;28;20459;-71
2021/12/26 01:39:32;;;;;;;10.07;5.40;;;;;;;;;;5074934;28;20944;-71
2021/12/26 01:42:02;;;;;;;9.50;6.03;;;;;;;;;;5075318;28;20447;-71
2021/12/26 01:44:29;;;;;;;10.30;5.83;;;;;;;;;;5074713;28;20479;-71
2021/12/26 01:46:57;;;;;;;10.30;3.87;;;;;;;;;;5075126;28;20483;-71
2021/12/26 01:49:26;;;;;;;8.73;5.50;;;;;;;;;;5074851;28;20495;-71
2021/12/26 01:51:54;;;;;;;13.03;6.93;;;;;;;;;;5075026;28;20455;-71
2021/12/26 01:54:30;;;;;;;18.53;7.33;;;;;;;;;;5074684;28;20964;-71
2021/12/26 01:56:57;;;;;;;8.13;4.63;;;;;;;;;;5074959;28;20864;-71
2021/12/26 01:59:24;;;;;;;8.03;4.93;;;;;;;;;;5074885;28;20932;-71
2021/12/26 02:01:51;;;;;;;11.37;6.13;;;;;;;;;;5074821;28;20454;-71
2021/12/26 02:04:19;;;;;;;7.50;5.40;;;;;;;;;;5074535;28;20836;-71
2021/12/26 02:06:47;;;;;;;14.10;5.93;;;;;;;;;;5074994;28;20960;-71
2021/12/26 02:09:14;;;;;;;7.00;4.27;;;;;;;;;;5074631;28;20487;-71
2021/12/26 02:11:41;;;;;;;10.80;5.43;;;;;;;;;;5074804;28;20454;-71
2021/12/26 02:14:08;;;;;;;9.77;7.30;;;;;;;;;;5074216;28;20459;-71
2021/12/26 02:16:36;;;;;;;8.80;6.13;;;;;;;;;;5074420;28;20833;-71
2021/12/26 02:19:03;;;;;;;6.83;3.40;;;;;;;;;;5074579;28;20471;-71
2021/12/26 02:21:51;;;;;;;17.03;7.33;;;;;;;;;;5074423;28;20447;-71
2021/12/26 02:24:23;;;;;;;7.73;5.13;;;;;;;;;;5074160;28;20917;-71
2021/12/26 02:29:35;;;;;;;8.00;5.40;;;;;;;;;;5074125;28;20624;-71
2021/12/26 02:32:02;;;;;;;6.23;4.40;;;;;;;;;;5074261;28;20444;-71
2021/12/26 02:34:29;;;;;;;8.80;4.83;;;;;;;;;;5073739;28;20475;-71
2021/12/26 02:36:58;;;;;;;5.37;4.37;;;;;;;;;;5074284;28;20452;-71
2021/12/26 02:39:25;;;;;;;9.37;4.90;;;;;;;;;;5073607;28;20451;-71
2021/12/26 02:41:52;;;;;;;11.80;6.03;;;;;;;;;;5074171;28;20455;-71
2021/12/26 02:44:19;;;;;;;8.70;5.30;;;;;;;;;;5073571;28;20476;-71
2021/12/26 02:46:46;;;;;;;8.60;6.03;;;;;;;;;;5073910;28;20459;-71
2021/12/26 02:49:14;;;;;;;9.20;4.80;;;;;;;;;;5073765;28;20495;-71
2021/12/26 02:51:41;;;;;;;7.70;5.30;;;;;;;;;;5073765;28;20844;-71
2021/12/26 02:54:09;;;;;;;10.73;6.50;;;;;;;;;;5073530;28;20459;-71
2021/12/26 02:56:36;;;;;;;9.20;5.50;;;;;;;;;;5073644;28;20451;-71
2021/12/26 02:59:03;;;;;;;8.23;4.97;;;;;;;;;;5073768;28;20952;-71
2021/12/26 03:01:30;;;;;;;3.77;2.43;;;;;;;;;;5073558;28;20804;-71
2021/12/26 03:03:59;;;;;;;12.17;4.77;;;;;;;;;;5073479;28;20454;-71
2021/12/26 03:06:32;;;;;;;7.47;5.40;;;;;;;;;;5073473;28;20878;-71
2021/12/26 03:09:00;;;;;;;7.37;4.23;;;;;;;;;;5073493;28;20570;-71
2021/12/26 03:11:28;;;;;;;7.07;4.97;;;;;;;;;;5073430;28;20546;-71
2021/12/26 03:13:56;;;;;;;10.63;5.03;;;;;;;;;;5073244;28;20794;-71
2021/12/26 03:16:23;;;;;;;4.70;3.00;;;;;;;;;;5073331;28;20451;-71
2021/12/26 03:18:50;;;;;;;5.13;4.40;;;;;;;;;;5073465;28;20450;-71
2021/12/26 03:21:17;;;;;;;9.17;4.90;;;;;;;;;;5073407;28;20459;-71
2021/12/26 03:23:44;;;;;;;6.40;3.77;;;;;;;;;;5073013;28;20455;-71
2021/12/26 03:26:11;;;;;;;7.90;4.50;;;;;;;;;;5073020;28;20928;-71
2021/12/26 03:28:40;;;;;;;10.80;5.20;;;;;;;;;;5072983;28;20483;-71
2021/12/26 03:31:07;;;;;;;13.20;7.10;;;;;;;;;;5073435;28;20454;-71
2021/12/26 03:33:34;;;;;;;6.37;4.37;;;;;;;;;;5073066;28;20448;-71
2021/12/26 03:36:01;;;;;;;8.10;4.20;;;;;;;;;;5073161;28;20468;-71
2021/12/26 03:38:29;;;;;;;4.07;3.13;;;;;;;;;;5073030;28;20455;-71
2021/12/26 03:40:56;;;;;;;13.57;5.03;;;;;;;;;;5073198;28;20456;-71
2021/12/26 03:43:24;;;;;;;11.60;4.30;;;;;;;;;;5073031;28;20474;-71
2021/12/26 03:45:53;;;;;;;6.60;3.47;;;;;;;;;;5073030;28;20470;-71
2021/12/26 03:48:21;;;;;;;7.87;4.40;;;;;;;;;;5072872;28;20480;-71
2021/12/26 03:50:49;;;;;;;6.13;4.40;;;;;;;;;;5072984;28;20447;-71
2021/12/26 03:53:16;;;;;;;7.53;4.80;;;;;;;;;;5073140;28;20463;-71
2021/12/26 03:55:44;;;;;;;5.10;4.30;;;;;;;;;;5072014;28;20483;-71
2021/12/26 03:58:11;;;;;;;11.33;5.43;;;;;;;;;;5073031;28;20459;-71
2021/12/26 04:00:39;;;;;;;6.00;3.53;;;;;;;;;;5073050;28;20816;-71
2021/12/26 04:03:07;;;;;;;6.37;3.37;;;;;;;;;;5072971;28;20455;-71
2021/12/26 04:05:35;;;;;;;7.70;4.20;;;;;;;;;;5072560;28;20468;-71
2021/12/26 04:08:03;;;;;;;8.30;4.73;;;;;;;;;;5072863;28;20448;-71
2021/12/26 04:10:30;;;;;;;5.83;3.83;;;;;;;;;;5072848;28;20444;-71
2021/12/26 04:12:58;;;;;;;8.17;4.93;;;;;;;;;;5072980;28;20553;-71
2021/12/26 04:15:27;;;;;;;6.93;4.50;;;;;;;;;;5072389;28;20479;-72
2021/12/26 04:17:57;;;;;;;6.30;3.40;;;;;;;;;;5072696;28;20452;-71
2021/12/26 04:20:26;;;;;;;6.20;4.83;;;;;;;;;;5072588;28;20452;-71
2021/12/26 04:22:54;;;;;;;7.83;4.27;;;;;;;;;;5072724;28;20455;-71
2021/12/26 04:25:21;;;;;;;5.63;3.70;;;;;;;;;;5072307;28;20468;-71
2021/12/26 04:27:49;;;;;;;5.90;3.97;;;;;;;;;;5072798;28;20463;-71
2021/12/26 04:30:17;;;;;;;6.93;4.50;;;;;;;;;;5072627;28;20487;-71
2021/12/26 04:32:44;;;;;;;5.53;3.00;;;;;;;;;;5073081;28;20452;-71
2021/12/26 04:35:11;;;;;;;7.43;3.57;;;;;;;;;;5072304;28;20844;-71
2021/12/26 04:37:39;;;;;;;5.40;2.30;;;;;;;;;;5072594;28;20466;-71
2021/12/26 04:40:08;;;;;;;5.73;3.40;;;;;;;;;;5072548;28;20463;-71
2021/12/26 04:42:37;;;;;;;9.67;5.50;;;;;;;;;;5072439;28;20455;-71
2021/12/26 04:45:05;;;;;;;8.07;4.10;;;;;;;;;;5072312;28;20549;-71
2021/12/26 04:47:32;;;;;;;8.87;4.13;;;;;;;;;;5072339;28;20448;-71
2021/12/26 04:49:59;;;;;;;6.03;4.17;;;;;;;;;;5072349;28;20504;-71
2021/12/26 04:52:26;;;;;;;5.23;3.20;;;;;;;;;;5072371;28;20447;-71
2021/12/26 04:54:55;;;;;;;6.47;3.73;;;;;;;;;;5072177;28;20820;-71
2021/12/26 04:57:22;;;;;;;5.60;3.77;;;;;;;;;;5072516;28;20817;-71
2021/12/26 04:59:49;;;;;;;2.60;2.30;;;;;;;;;;5072414;28;20460;-71
2021/12/26 05:02:16;;;;;;;15.13;8.80;;;;;;;;;;5072226;28;20459;-71
2021/12/26 05:04:43;;;;;;;8.53;4.20;;;;;;;;;;5072008;28;21019;-71
2021/12/26 05:07:10;;;;;;;6.53;4.17;;;;;;;;;;5073891;28;20457;-71
2021/12/26 05:09:37;;;;;;;4.20;3.13;;;;;;;;;;5075700;28;20490;-71
2021/12/26 05:12:07;;;;;;;8.00;3.83;;;;;;;;;;5075971;28;20455;-71
2021/12/26 05:14:34;;;;;;;8.00;4.63;;;;;;;;;;5075362;28;20467;-71
2021/12/26 05:17:01;;;;;;;11.33;4.67;;;;;;;;;;5075881;28;20940;-71
2021/12/26 05:19:28;;;;;;;6.50;4.23;;;;;;;;;;5075678;28;20444;-71
2021/12/26 05:21:55;;;;;;;8.63;3.90;;;;;;;;;;5075758;28;20451;-71
2021/12/26 05:24:22;;;;;;;6.70;3.67;;;;;;;;;;5074975;28;20475;-72
2021/12/26 05:26:49;;;;;;;7.80;4.60;;;;;;;;;;5075652;28;20443;-71
2021/12/26 05:29:18;;;;;;;9.87;4.80;;;;;;;;;;5075203;28;20487;-71
2021/12/26 05:31:45;;;;;;;1.90;1.33;;;;;;;;;;5075371;28;20447;-71
2021/12/26 05:34:12;;;;;;;7.07;3.90;;;;;;;;;;5075176;28;20458;-71
2021/12/26 05:36:39;;;;;;;7.50;3.67;;;;;;;;;;5075411;28;20455;-71
2021/12/26 05:39:06;;;;;;;6.37;4.87;;;;;;;;;;5075194;28;20440;-72
2021/12/26 05:41:33;;;;;;;3.57;2.60;;;;;;;;;;5075217;28;20451;-71
2021/12/26 05:44:00;;;;;;;7.23;3.77;;;;;;;;;;5075214;28;20975;-71
2021/12/26 05:46:29;;;;;;;9.83;4.97;;;;;;;;;;5075001;28;20452;-71
2021/12/26 05:48:56;;;;;;;7.73;3.80;;;;;;;;;;5075141;28;20484;-71
2021/12/26 05:51:23;;;;;;;6.57;4.33;;;;;;;;;;5075047;28;20864;-71
2021/12/26 05:53:50;;;;;;;6.20;4.10;;;;;;;;;;5074821;28;20551;-72
2021/12/26 05:56:17;;;;;;;10.33;3.93;;;;;;;;;;5075009;28;20827;-71
2021/12/26 05:58:45;;;;;;;8.10;4.20;;;;;;;;;;5074918;28;20459;-71
2021/12/26 06:01:12;;;;;;;4.93;3.10;;;;;;;;;;5074843;28;20459;-71
2021/12/26 06:03:40;;;;;;;9.00;3.67;;;;;;;;;;5074696;28;20951;-72
2021/12/26 06:06:08;;;;;;;6.30;3.40;;;;;;;;;;5074643;28;20476;-71
2021/12/26 06:08:35;;;;;;;3.83;2.90;;;;;;;;;;5074700;28;20452;-71
2021/12/26 06:11:02;;;;;;;9.60;3.93;;;;;;;;;;5074660;28;20486;-71
2021/12/26 06:13:31;;;;;;;10.97;4.80;;;;;;;;;;5074349;28;20951;-71
2021/12/26 06:15:58;;;;;;;9.23;4.63;;;;;;;;;;5074628;28;20517;-71
2021/12/26 06:18:25;;;;;;;8.40;4.60;;;;;;;;;;5074064;28;20455;-71
2021/12/26 06:20:54;;;;;;;7.20;4.43;;;;;;;;;;5074482;28;20452;-71
2021/12/26 06:23:21;;;;;;;8.73;4.47;;;;;;;;;;5074501;28;20458;-71
2021/12/26 06:25:48;;;;;;;7.37;3.97;;;;;;;;;;5073864;28;20471;-71
2021/12/26 06:28:15;;;;;;;7.33;5.83;;;;;;;;;;5074260;28;20820;-71
2021/12/26 06:30:42;;;;;;;7.60;4.20;;;;;;;;;;5074313;28;20490;-71
2021/12/26 06:33:09;;;;;;;7.40;4.40;;;;;;;;;;5074311;28;20937;-71
2021/12/26 06:35:36;;;;;;;8.17;4.50;;;;;;;;;;5073921;28;20494;-72
2021/12/26 06:38:05;;;;;;;9.13;5.10;;;;;;;;;;5074152;28;20944;-71
2021/12/26 06:40:32;;;;;;;6.33;3.83;;;;;;;;;;5073592;28;20444;-71
2021/12/26 06:42:59;;;;;;;7.47;3.90;;;;;;;;;;5074208;28;20448;-71
2021/12/26 06:45:26;;;;;;;6.97;5.03;;;;;;;;;;5073715;28;20467;-71
2021/12/26 06:47:56;;;;;;;8.20;4.70;;;;;;;;;;5073933;28;20495;-71
2021/12/26 06:50:23;;;;;;;8.40;4.23;;;;;;;;;;5073700;28;20492;-71
2021/12/26 06:52:50;;;;;;;5.80;3.93;;;;;;;;;;5073451;28;20503;-71
2021/12/26 06:55:19;;;;;;;4.33;3.60;;;;;;;;;;5073486;28;20471;-71
2021/12/26 06:57:46;;;;;;;6.03;3.80;;;;;;;;;;5073771;28;20447;-71
2021/12/26 07:00:15;;;;;;;8.00;3.67;;;;;;;;;;5073741;28;20456;-71
2021/12/26 07:02:42;;;;;;;8.30;4.30;;;;;;;;;;5073606;28;20936;-71
2021/12/26 07:05:11;;;;;;;5.90;4.67;;;;;;;;;;5073430;28;20463;-71
2021/12/26 07:07:38;;;;;;;7.90;4.37;;;;;;;;;;5073615;28;20948;-71
2021/12/26 07:10:06;;;;;;;5.53;3.50;;;;;;;;;;5073620;28;21016;-71
2021/12/26 07:12:34;;;;;;;8.67;4.10;;;;;;;;;;5073490;28;20452;-71
2021/12/26 07:15:02;;;;;;;14.20;4.50;;;;;;;;;;5073213;28;20968;-71
2021/12/26 07:17:29;;;;;;;12.73;5.40;;;;;;;;;;5073380;28;20448;-71
2021/12/26 07:19:56;;;;;;;8.93;5.00;;;;;;;;;;5073401;28;20447;-71
2021/12/26 07:22:23;;;;;;;5.67;4.30;;;;;;;;;;5073411;28;20452;-71
2021/12/26 07:24:50;;;;;;;6.63;3.67;;;;;;;;;;5072909;28;20467;-71
2021/12/26 07:27:17;;;;;;;9.13;5.20;;;;;;;;;;5073417;28;20939;-71
2021/12/26 07:29:46;;;;;;;15.60;7.60;;;;;;;;;;5072233;28;20487;-71
2021/12/26 07:32:13;;;;;;;10.33;6.13;;;;;;;;;;5073444;28;20454;-71
2021/12/26 07:34:41;;;;;;;7.23;4.27;;;;;;;;;;5073038;28;20468;-71
2021/12/26 07:37:08;;;;;;;7.77;5.00;;;;;;;;;;5073258;28;20829;-71
2021/12/26 07:39:36;;;;;;;7.53;3.10;;;;;;;;;;5072919;28;20454;-71
2021/12/26 07:42:03;;;;;;;9.47;6.33;;;;;;;;;;5073275;28;20788;-71
2021/12/26 07:44:30;;;;;;;7.30;4.20;;;;;;;;;;5072740;28;20831;-71
2021/12/26 07:46:59;;;;;;;8.33;6.03;;;;;;;;;;5072932;28;20546;-71
2021/12/26 07:49:27;;;;;;;11.00;5.37;;;;;;;;;;5073011;28;20458;-71
2021/12/26 07:51:54;;;;;;;17.67;7.60;;;;;;;;;;5073213;28;20968;-71
2021/12/26 07:54:23;;;;;;;8.20;4.27;;;;;;;;;;5072922;28;20500;-71
2021/12/26 07:56:50;;;;;;;12.70;6.00;;;;;;;;;;5073042;28;20458;-71
2021/12/26 07:59:18;;;;;;;9.57;5.37;;;;;;;;;;5072879;28;20452;-71
2021/12/26 08:01:45;;;;;;;5.20;3.60;;;;;;;;;;5072930;28;20453;-71
2021/12/26 08:04:15;;;;;;;7.70;4.67;;;;;;;;;;5072701;28;20451;-71
2021/12/26 08:06:43;;;;;;;7.83;4.87;;;;;;;;;;5072989;28;20463;-71
2021/12/26 08:09:10;;;;;;;5.87;3.87;;;;;;;;;;5072871;28;20944;-71
2021/12/26 08:11:37;;;;;;;10.03;5.37;;;;;;;;;;5072770;28;20497;-71
2021/12/26 08:14:04;;;;;;;7.17;3.80;;;;;;;;;;5072566;28;21060;-71
2021/12/26 08:16:31;;;;;;;6.40;4.37;;;;;;;;;;5072795;28;20460;-71
2021/12/26 08:18:58;;;;;;;12.97;5.97;;;;;;;;;;5072740;28;20959;-71
2021/12/26 08:21:27;;;;;;;12.90;6.00;;;;;;;;;;5072637;28;20839;-71
2021/12/26 08:23:54;;;;;;;3.00;2.23;;;;;;;;;;5072416;28;20458;-71
2021/12/26 08:26:21;;;;;;;8.77;4.37;;;;;;;;;;5072410;28;20464;-71
2021/12/26 08:28:48;;;;;;;11.53;5.60;;;;;;;;;;5072651;28;20825;-71
2021/12/26 08:31:17;;;;;;;13.47;6.20;;;;;;;;;;5069688;28;20487;-71
2021/12/26 08:33:44;;;;;;;8.27;5.80;;;;;;;;;;5071266;28;20456;-71
2021/12/26 08:36:12;;;;;;;11.60;5.13;;;;;;;;;;5071500;28;20471;-71
2021/12/26 08:38:40;;;;;;;5.30;3.20;;;;;;;;;;5070721;28;20488;-71
2021/12/26 08:41:07;;;;;;;6.13;5.07;;;;;;;;;;5072899;28;20448;-71
2021/12/26 08:43:34;;;;;;;11.43;5.80;;;;;;;;;;5074684;28;20447;-71
2021/12/26 08:46:02;;;;;;;6.47;5.07;;;;;;;;;;5074777;28;20485;-71
2021/12/26 08:48:29;;;;;;;8.17;6.00;;;;;;;;;;5074962;28;20474;-72
2021/12/26 08:50:57;;;;;;;7.37;4.90;;;;;;;;;;5074838;28;20548;-72
2021/12/26 08:53:25;;;;;;;15.07;7.97;;;;;;;;;;5074427;28;20451;-72
2021/12/26 08:55:54;;;;;;;12.73;7.27;;;;;;;;;;5074605;28;20851;-72
2021/12/26 08:58:21;;;;;;;10.00;5.50;;;;;;;;;;5074664;28;20819;-71
2021/12/26 09:00:48;;;;;;;62.97;28.60;;;;;;;;;;5074426;28;20523;-71
2021/12/26 09:03:15;;;;;;;10.60;6.87;;;;;;;;;;5075369;28;20815;-71
2021/12/26 09:05:43;;;;;;;9.50;5.07;;;;;;;;;;5075713;28;20834;-71
2021/12/26 09:08:10;;;;;;;19.93;6.77;;;;;;;;;;5075770;28;20975;-71
2021/12/26 09:10:38;;;;;;;13.97;6.10;;;;;;;;;;5075580;28;20486;-71
2021/12/26 09:13:06;;;;;;;21.10;12.60;;;;;;;;;;5075704;28;20466;-71
2021/12/26 09:15:34;;;;;;;9.53;5.10;;;;;;;;;;5075463;28;20508;-71
2021/12/26 09:18:01;;;;;;;14.10;6.87;;;;;;;;;;5073122;28;20456;-71
2021/12/26 09:20:28;;;;;;;12.90;7.33;;;;;;;;;;5074066;28;20442;-71
2021/12/26 09:22:56;;;;;;;9.93;6.73;;;;;;;;;;5059677;28;20468;-71
2021/12/26 09:25:24;;;;;;;7.37;3.40;;;;;;;;;;5053405;28;20866;-71
2021/12/26 09:27:51;;;;;;;12.37;6.00;;;;;;;;;;5054076;28;20942;-71
2021/12/26 09:30:20;;;;;;;8.23;5.20;;;;;;;;;;5053911;28;20492;-71
2021/12/26 09:32:47;;;;;;;8.37;4.53;;;;;;;;;;5053649;28;20453;-71
2021/12/26 09:35:14;;;;;;;8.57;5.57;;;;;;;;;;5053843;28;20475;-71
2021/12/26 09:37:43;;;;;;;7.03;5.00;;;;;;;;;;5053848;28;20456;-72
2021/12/26 09:40:11;;;;;;;7.60;4.63;;;;;;;;;;5054093;28;20445;-71
2021/12/26 09:42:38;;;;;;;6.90;4.80;;;;;;;;;;5053896;28;20457;-71
2021/12/26 09:45:08;;;;;;;8.70;4.67;;;;;;;;;;5053806;28;20477;-72
2021/12/26 09:47:37;;;;;;;7.30;3.80;;;;;;;;;;5053651;28;20461;-72
2021/12/26 09:50:05;;;;;;;6.47;5.13;;;;;;;;;;5053893;28;20820;-71
2021/12/26 09:52:32;;;;;;;7.17;4.70;;;;;;;;;;5052927;28;20464;-72
2021/12/26 09:54:59;;;;;;;11.87;6.40;;;;;;;;;;5053584;28;20833;-72
2021/12/26 09:57:27;;;;;;;7.20;5.00;;;;;;;;;;5053644;28;20539;-72
2021/12/26 09:59:55;;;;;;;10.90;5.73;;;;;;;;;;5053670;28;20456;-71
2021/12/26 10:02:22;;;;;;;14.13;7.30;;;;;;;;;;5053193;28;20904;-72
2021/12/26 10:04:51;;;;;;;7.97;5.20;;;;;;;;;;5053450;28;21005;-71
2021/12/26 10:07:20;;;;;;;10.23;5.97;;;;;;;;;;5053411;28;20946;-71
2021/12/26 10:09:48;;;;;;;7.87;4.30;;;;;;;;;;5053295;28;20448;-71
2021/12/26 10:12:16;;;;;;;6.20;4.90;;;;;;;;;;5053264;28;21045;-71
2021/12/26 10:14:44;;;;;;;12.03;6.57;;;;;;;;;;5053257;28;20978;-71
2021/12/26 10:17:13;;;;;;;11.50;6.37;;;;;;;;;;5053182;28;20479;-72
2021/12/26 10:19:40;;;;;;;20.93;7.57;;;;;;;;;;5053041;28;20456;-72
2021/12/26 10:22:10;;;;;;;11.77;5.93;;;;;;;;;;5053167;28;20814;-72
2021/12/26 10:24:39;;;;;;;17.10;7.90;;;;;;;;;;5052208;28;20477;-71
2021/12/26 10:27:07;;;;;;;10.03;5.50;;;;;;;;;;5053209;28;20871;-71
2021/12/26 10:29:38;;;;;;;6.20;4.90;;;;;;;;;;5052575;28;20461;-71
2021/12/26 10:32:07;;;;;;;18.50;7.73;;;;;;;;;;5052898;28;20491;-72
2021/12/26 10:34:38;;;;;;;14.97;7.20;;;;;;;;;;5052547;28;20800;-71
2021/12/26 10:37:08;;;;;;;14.60;7.00;;;;;;;;;;5053120;28;20464;-71
2021/12/26 10:39:37;;;;;;;14.87;6.53;;;;;;;;;;5066790;28;20458;-72
2021/12/26 10:42:06;;;;;;;13.07;8.97;;;;;;;;;;5072106;28;20451;-71
2021/12/26 10:44:35;;;;;;;13.30;11.93;;;;;;;;;;5072384;28;20475;-71
2021/12/26 10:47:05;;;;;;;22.17;11.17;;;;;;;;;;5072394;28;20448;-71
2021/12/26 10:49:37;;;;;;;9.90;5.50;;;;;;;;;;5072416;28;20452;-72
2021/12/26 10:52:10;;;;;;;9.90;5.70;;;;;;;;;;5072470;28;20570;-72
2021/12/26 10:54:41;;;;;;;13.97;5.43;;;;;;;;;;5072015;28;20992;-71
2021/12/26 10:57:13;;;;;;;10.93;6.80;;;;;;;;;;5072506;28;20960;-71
2021/12/26 10:59:44;;;;;;;8.80;6.45;;;;;;;;;;5072064;28;20440;-71
2021/12/26 11:02:22;;;;;;;11.43;6.30;;;;;;;;;;5073802;28;20206;-71
2021/12/26 11:04:54;;;;;;;14.07;6.13;;;;;;;;;;5073419;28;20520;-71
2021/12/26 11:07:22;;;;;;;16.40;5.10;;;;;;;;;;5073629;28;20463;-72
2021/12/26 11:10:03;;;;;;;9.07;5.50;;;;;;;;;;5073372;28;20443;-72
2021/12/26 11:12:44;;;;;;;17.73;6.80;;;;;;;;;;5073325;28;21012;-71
2021/12/26 11:15:12;;;;;;;11.17;5.87;;;;;;;;;;5073175;28;20468;-71
2021/12/26 11:17:42;;;;;;;12.50;6.80;;;;;;;;;;5073308;28;20459;-71
2021/12/26 11:20:10;;;;;;;10.50;6.60;;;;;;;;;;5073301;28;20456;-71
2021/12/26 11:22:37;;;;;;;10.47;6.60;;;;;;;;;;5073246;28;20443;-71
2021/12/26 11:25:06;;;;;;;8.97;5.70;;;;;;;;;;5072883;28;20472;-71
2021/12/26 11:27:33;;;;;;;8.93;5.37;;;;;;;;;;5073164;28;20466;-71
2021/12/26 11:30:00;;;;;;;9.73;6.20;;;;;;;;;;5073216;28;20971;-71
2021/12/26 11:32:29;;;;;;;17.90;9.50;;;;;;;;;;5073226;28;20515;-71
2021/12/26 11:34:57;;;;;;;10.80;5.97;;;;;;;;;;5073346;28;20475;-71
2021/12/26 11:37:25;;;;;;;7.53;4.97;;;;;;;;;;5073159;28;20452;-71
2021/12/26 11:39:52;;;;;;;6.40;5.20;;;;;;;;;;5073336;28;20447;-71
2021/12/26 11:42:34;;;;;;;11.93;9.83;;;;;;;;;;5070144;28;20462;-72
2021/12/26 11:45:11;;;;;;;7.07;4.10;;;;;;;;;;5058797;28;20475;-71
2021/12/26 11:48:11;;;;;;;36.67;15.73;;;;;;;;;;5071627;28;20962;-71
2021/12/26 11:50:43;;;;;;;16.10;8.93;;;;;;;;;;5018407;28;20460;-72
2021/12/26 11:53:27;;;;;;;13.37;6.90;;;;;;;;;;5071777;28;20815;-71
2021/12/26 11:56:01;;;;;;;17.63;9.50;;;;;;;;;;5071534;28;20476;-72
2021/12/26 11:58:33;;;;;;;30.23;16.40;;;;;;;;;;5071949;28;20451;-71
2021/12/26 12:01:02;;;;;;;8.20;5.53;;;;;;;;;;5071658;28;20447;-72
2021/12/26 12:03:30;;;;;;;10.83;7.73;;;;;;;;;;5071224;28;20460;-72
2021/12/26 12:05:57;;;;;;;12.30;6.57;;;;;;;;;;5071175;28;20467;-72
2021/12/26 12:08:28;;;;;;;14.47;7.27;;;;;;;;;;5071408;28;20451;-71
2021/12/26 12:10:59;;;;;;;14.13;7.67;;;;;;;;;;5071311;28;20448;-72
2021/12/26 12:13:45;;;;;;;12.47;7.83;;;;;;;;;;5071053;28;20460;-72
2021/12/26 12:16:14;;;;;;;10.90;7.53;;;;;;;;;;5073322;28;20471;-72
2021/12/26 12:18:58;;;;;;;11.10;6.33;;;;;;;;;;5075323;28;20870;-72
2021/12/26 12:21:31;;;;;;;10.90;5.07;;;;;;;;;;5075446;28;20835;-72
2021/12/26 12:23:59;;;;;;;14.30;7.07;;;;;;;;;;5075135;28;20448;-72
2021/12/26 12:26:40;;;;;;;14.23;8.33;;;;;;;;;;5074639;28;20448;-72
2021/12/26 12:29:08;;;;;;;12.27;7.30;;;;;;;;;;5075117;28;20474;-72
2021/12/26 12:31:36;;;;;;;10.03;6.03;;;;;;;;;;5075007;28;20494;-72
2021/12/26 12:34:04;;;;;;;7.53;5.30;;;;;;;;;;5074663;28;20457;-72
2021/12/26 12:36:32;;;;;;;9.60;6.83;;;;;;;;;;5075900;28;20842;-72
2021/12/26 12:39:10;;;;;;;12.00;7.20;;;;;;;;;;5076412;28;20451;-71
2021/12/26 12:41:39;;;;;;;18.90;9.37;;;;;;;;;;5075575;28;20447;-71
2021/12/26 12:44:07;;;;;;;12.00;6.40;;;;;;;;;;5075932;28;20497;-72
2021/12/26 12:46:52;;;;;;;7.47;4.93;;;;;;;;;;5076125;28;20454;-73
2021/12/26 12:49:20;;;;;;;11.83;6.30;;;;;;;;;;5076504;28;20428;-73
2021/12/26 12:51:48;;;;;;;9.03;6.43;;;;;;;;;;5076417;28;20996;-73
2021/12/26 12:54:20;;;;;;;13.17;7.40;;;;;;;;;;5075805;28;20538;-73
2021/12/26 12:56:47;;;;;;;12.97;7.90;;;;;;;;;;5076239;28;20451;-73
2021/12/26 12:59:33;;;;;;;10.77;6.10;;;;;;;;;;5076139;28;20530;-73
2021/12/26 13:02:02;;;;;;;7.70;6.37;;;;;;;;;;5076180;28;20895;-73
2021/12/26 13:04:30;;;;;;;14.03;7.50;;;;;;;;;;5075679;28;20479;-73
2021/12/26 13:06:58;;;;;;;8.60;5.43;;;;;;;;;;5075859;28;20455;-73
2021/12/26 13:09:26;;;;;;;10.43;7.03;;;;;;;;;;5075837;28;20844;-72
2021/12/26 13:11:58;;;;;;;6.40;5.67;;;;;;;;;;5075833;28;20510;-72
2021/12/26 13:14:35;;;;;;;9.50;6.70;;;;;;;;;;5075710;28;20478;-72
2021/12/26 13:17:04;;;;;;;12.90;5.87;;;;;;;;;;5075770;28;20458;-73
2021/12/26 13:19:31;;;;;;;12.63;6.77;;;;;;;;;;5075788;28;20460;-73
2021/12/26 13:21:58;;;;;;;19.13;6.67;;;;;;;;;;5075765;28;20817;-73
2021/12/26 13:24:30;;;;;;;13.97;7.93;;;;;;;;;;5075029;28;20467;-72
2021/12/26 13:26:57;;;;;;;7.93;5.27;;;;;;;;;;5074667;28;20448;-73
2021/12/26 13:29:25;;;;;;;15.70;10.17;;;;;;;;;;5075168;28;20471;-73
2021/12/26 13:31:52;;;;;;;13.87;7.93;;;;;;;;;;5075225;28;20490;-71
2021/12/26 13:34:21;;;;;;;8.27;4.23;;;;;;;;;;5075145;28;20475;-71
2021/12/26 13:36:48;;;;;;;12.33;7.70;;;;;;;;;;5075191;28;20818;-71
2021/12/26 13:39:19;;;;;;;8.90;5.80;;;;;;;;;;5075199;28;20463;-71
2021/12/26 13:41:47;;;;;;;11.90;5.97;;;;;;;;;;5075231;28;20466;-71
2021/12/26 13:44:14;;;;;;;10.60;7.07;;;;;;;;;;5075098;28;20539;-71
2021/12/26 13:46:42;;;;;;;11.73;7.40;;;;;;;;;;5075089;28;20455;-71
2021/12/26 13:49:11;;;;;;;10.60;6.47;;;;;;;;;;5074997;28;20459;-71
2021/12/26 13:51:41;;;;;;;9.97;6.00;;;;;;;;;;5074816;28;20487;-71
2021/12/26 13:54:09;;;;;;;6.80;4.90;;;;;;;;;;5074632;28;20451;-70
2021/12/26 13:56:55;;;;;;;10.40;6.43;;;;;;;;;;5074728;28;20459;-71
2021/12/26 13:59:32;;;;;;;11.50;6.07;;;;;;;;;;5074936;28;20490;-71
2021/12/26 14:02:00;;;;;;;9.40;5.13;;;;;;;;;;5074840;28;20447;-71
2021/12/26 14:04:27;;;;;;;9.60;7.17;;;;;;;;;;5074464;28;20849;-71
2021/12/26 14:06:56;;;;;;;11.10;5.40;;;;;;;;;;5074848;28;20466;-71
2021/12/26 14:09:24;;;;;;;14.43;7.33;;;;;;;;;;5074607;28;20443;-71
2021/12/26 14:11:52;;;;;;;8.80;6.07;;;;;;;;;;5074683;28;20582;-71
2021/12/26 14:14:27;;;;;;;15.83;6.57;;;;;;;;;;5074365;28;20483;-71
2021/12/26 14:16:54;;;;;;;12.13;6.30;;;;;;;;;;5074698;28;20948;-70
2021/12/26 14:19:21;;;;;;;13.30;6.00;;;;;;;;;;5074582;28;20451;-71
2021/12/26 14:21:50;;;;;;;13.63;6.20;;;;;;;;;;5074605;28;20459;-70
2021/12/26 14:24:21;;;;;;;14.07;7.47;;;;;;;;;;5074194;28;20475;-71
2021/12/26 14:26:48;;;;;;;12.00;7.87;;;;;;;;;;5074548;28;20452;-71
2021/12/26 14:29:18;;;;;;;15.73;8.50;;;;;;;;;;5074321;28;20463;-71
2021/12/26 14:31:46;;;;;;;25.47;11.93;;;;;;;;;;5074269;28;20489;-71
2021/12/26 14:34:14;;;;;;;15.40;6.97;;;;;;;;;;5074140;28;20455;-71
2021/12/26 14:36:45;;;;;;;27.80;10.70;;;;;;;;;;5074032;28;20963;-71
2021/12/26 14:39:13;;;;;;;20.83;9.97;;;;;;;;;;5073842;28;20455;-71
2021/12/26 14:41:42;;;;;;;13.53;7.93;;;;;;;;;;5073959;28;20447;-71
2021/12/26 14:44:14;;;;;;;19.37;10.13;;;;;;;;;;5073925;28;20451;-71
2021/12/26 14:46:41;;;;;;;16.17;7.37;;;;;;;;;;5073949;28;20451;-71
2021/12/26 14:49:09;;;;;;;31.60;11.93;;;;;;;;;;5074043;28;20448;-71